Terminal Aerodrome Forecast
Issued by NWS

Home | Current Version | Previous Version | Text Only | Print | Product List | Glossary On
Versions: 1 2 3 4 5 6 7 8 9 10 11 12 13 14 15 16
134
FTUS45 KABQ 200520
TAFROW
TAF
KROW 200520Z 2006/2106 15011KT P6SM VCSH BKN100
      TEMPO 2006/2009 15011G21KT
     FM201030 16010KT P6SM BKN100
     FM202100 17011KT P6SM VCSH SCT060 BKN100
     FM210000 35015KT P6SM VCSH SCT060 BKN100 PROB30 2100/2103
      VRB20G30KT 5SM -TSRA SCT030 BKN060CB=

USA.gov is the U.S. government's official web portal to all federal, state and local government web resources and services.